Current Weather Conditions: station 46183

sailwx.info

Wind from 270 at 11 knots gusting 15

Wave height 0.9 meters (2 feet), 14 second period

Air temperature 4.2° C

Last reported at 2016-Dec-04 22:00 UTC.
Time now 2016-Dec-05 00:22 UTC

Location: N 53°36' W 131°06'.
View on Google Maps.

See reports from other nearby stations

  
Tides and Currents Weather Stations Pressure Air Temp Water Temp Dewpoint Dewpoint Depression Visibility Wind Speed Wind Dir Waves Ship Positions
date/time (UTC)wind fromknots sea level pressurealtimeterstation pressurevisibilityair tempwater tempwave heightnotes
2016-Dec-04 22:00 270 11 gusting 15 4.2 0.9
2016-Dec-04 21:00 260 15 gusting 17 4.3 0.9
2016-Dec-04 20:00 250 13 gusting 17 4.0 1.1
2016-Dec-04 19:00 250 17 gusting 19 4.6 1.0
2016-Dec-04 18:00 230 21 gusting 27 5.0 0.8
2016-Dec-04 17:00 200 13 gusting 17 5.0 0.8
2016-Dec-04 16:00 210 15 gusting 17 4.6 0.8
2016-Dec-04 15:00 170 13 gusting 17 3.5 0.9
2016-Dec-04 14:00 190 17 gusting 21 3.6 0.9
2016-Dec-04 13:00 210 11 gusting 15 3.6 1.1
2016-Dec-04 12:00 250 15 gusting 19 3.7 1.1
2016-Dec-04 11:00 220 17 gusting 21 4.9 1.0
2016-Dec-04 10:00 220 15 gusting 19 4.8 1.0
2016-Dec-04 09:00 250 11 gusting 15 3.4 1.2
2016-Dec-04 08:00 260 21 gusting 25 3.9 1.0
2016-Dec-04 07:00 260 15 gusting 21 5.3 1.0
2016-Dec-04 06:00 270 15 gusting 19 4.9 1.0
2016-Dec-04 05:00 270 11 gusting 15 3.8 0.9
2016-Dec-04 04:00 270 17 gusting 23 4.0 1.1
2016-Dec-04 03:00 260 19 gusting 23 3.8 1.0
2016-Dec-04 02:00 240 17 gusting 21 4.2 1.0
2016-Dec-04 01:00 230 13 gusting 19 4.0 1.1
2016-Dec-04 00:00 230 17 gusting 23 3.3 1.4
2016-Dec-03 23:00 220 13 gusting 19 4.1 1.3
2016-Dec-03 22:00 240 19 gusting 25 4.1 1.2
2016-Dec-03 21:00 240 17 gusting 21 4.7 1.1
2016-Dec-03 20:00 220 13 gusting 17 5.1 1.2
2016-Dec-03 19:00 230 15 gusting 21 5.2 1.2
2016-Dec-03 18:00 230 17 gusting 23 5.5 1.1
2016-Dec-03 17:00 230 15 gusting 19 5.1 1.3
2016-Dec-03 16:00 230 19 gusting 23 5.1 1.2
2016-Dec-03 15:00 240 19 gusting 27 3.4 1.3
2016-Dec-03 14:00 240 21 gusting 27 4.2 1.4
2016-Dec-03 13:00 230 19 gusting 27 4.7 1.3
2016-Dec-03 12:00 230 17 gusting 23 5.4 1.5
2016-Dec-03 11:00 230 17 gusting 21 4.6 1.6
2016-Dec-03 10:00 240 19 gusting 21 6.9 1.5
2016-Dec-03 09:00 240 15 gusting 19 6.3 1.7
2016-Dec-03 08:00 240 17 gusting 23 5.9 1.8
2016-Dec-03 07:00 230 19 6.7
2016-Dec-03 06:00 220 15 gusting 19 7.3 1.6
2016-Dec-03 05:00 240 15 gusting 17 7.0 1.4
2016-Dec-03 04:00 220 19 gusting 23 7.1 1.6
2016-Dec-03 03:00 220 19 gusting 23 8.4 1.5
2016-Dec-03 02:00 220 17 gusting 21 8.5 1.7
2016-Dec-03 01:00 210 19 gusting 23 8.0 1.8
2016-Dec-03 00:00 230 21 gusting 29 8.2 1.9